Time;durP1;ratioP1;P1;durP2;ratioP2;P2;SDS_P1;SDS_P2;PMS_P1;PMS_P2;Temp;Humidity;BMP_temperature;BMP_pressure;BME280_temperature;BME280_humidity;BME280_pressure;Samples;Min_cycle;Max_cycle;Signal;HPM_P1;HPM_P2
2024/02/08 00:00:20;;;;;;;13.43;7.20;;;;;;;;;;5134634;27;20879;-78
2024/02/08 00:02:46;;;;;;;12.97;4.57;;;;;;;;;;5134688;27;20412;-78
2024/02/08 00:05:12;;;;;;;11.37;5.70;;;;;;;;;;5134288;27;20416;-80
2024/02/08 00:07:38;;;;;;;11.67;6.20;;;;;;;;;;5116216;27;20939;-80
2024/02/08 00:10:08;;;;;;;8.63;4.33;;;;;;;;;;5134729;27;20448;-78
2024/02/08 00:12:35;;;;;;;9.20;4.00;;;;;;;;;;5134627;27;20426;-79
2024/02/08 00:15:01;;;;;;;12.50;4.83;;;;;;;;;;5134485;27;20408;-83
2024/02/08 00:17:27;;;;;;;9.23;3.57;;;;;;;;;;5134186;27;20413;-82
2024/02/08 00:19:53;;;;;;;7.53;2.77;;;;;;;;;;5134413;27;20396;-80
2024/02/08 00:22:22;;;;;;;12.77;3.57;;;;;;;;;;5133957;27;20921;-79
2024/02/08 00:24:48;;;;;;;9.77;3.50;;;;;;;;;;5134260;27;20409;-79
2024/02/08 00:27:18;;;;;;;10.40;2.30;;;;;;;;;;5134214;27;20404;-79
2024/02/08 00:29:44;;;;;;;9.97;3.77;;;;;;;;;;5133504;27;20761;-79
2024/02/08 00:32:10;;;;;;;4.40;2.63;;;;;;;;;;5133846;27;20434;-79
2024/02/08 00:34:38;;;;;;;7.90;2.30;;;;;;;;;;5134037;27;20400;-79
2024/02/08 00:37:05;;;;;;;9.20;2.80;;;;;;;;;;5133660;27;20398;-79
2024/02/08 00:39:31;;;;;;;8.33;2.40;;;;;;;;;;5133937;27;20412;-80
2024/02/08 00:41:58;;;;;;;8.13;2.67;;;;;;;;;;5115368;27;20444;-79
2024/02/08 00:44:26;;;;;;;14.87;2.70;;;;;;;;;;5133972;27;20408;-80
2024/02/08 00:46:52;;;;;;;8.87;2.87;;;;;;;;;;5133291;27;20745;-79
2024/02/08 00:49:18;;;;;;;4.87;2.17;;;;;;;;;;5133896;27;20415;-81
2024/02/08 00:51:43;;;;;;;11.80;3.23;;;;;;;;;;5115330;27;20514;-79
2024/02/08 00:54:10;;;;;;;5.33;2.43;;;;;;;;;;5132976;27;21008;-78
2024/02/08 00:56:36;;;;;;;6.23;2.00;;;;;;;;;;5134010;27;20413;-79
2024/02/08 00:59:01;;;;;;;4.50;1.43;;;;;;;;;;5134092;27;20831;-79
2024/02/08 01:01:30;;;;;;;8.30;1.93;;;;;;;;;;5133987;27;20471;-79
2024/02/08 01:03:56;;;;;;;9.30;2.03;;;;;;;;;;5134067;27;20810;-78
2024/02/08 01:06:22;;;;;;;6.33;1.83;;;;;;;;;;5133636;27;20410;-79
2024/02/08 01:08:48;;;;;;;7.40;2.50;;;;;;;;;;5133972;27;20417;-79
2024/02/08 01:11:14;;;;;;;10.83;2.00;;;;;;;;;;5133910;28;20463;-80
2024/02/08 01:13:40;;;;;;;5.37;2.20;;;;;;;;;;5133881;28;20886;-78
2024/02/08 01:16:06;;;;;;;9.23;1.90;;;;;;;;;;5115522;28;20411;-79
2024/02/08 01:18:33;;;;;;;12.20;2.87;;;;;;;;;;5133844;28;20414;-79
2024/02/08 01:21:00;;;;;;;9.40;2.10;;;;;;;;;;5133458;28;20413;-79
2024/02/08 01:23:28;;;;;;;5.07;1.43;;;;;;;;;;5133861;28;20889;-79
2024/02/08 01:25:54;;;;;;;5.73;2.00;;;;;;;;;;5125426;28;20396;-79
2024/02/08 01:28:19;;;;;;;7.20;3.10;;;;;;;;;;5133740;28;20491;-79
2024/02/08 01:30:45;;;;;;;6.07;0.83;;;;;;;;;;5133585;28;20449;-79
2024/02/08 01:33:11;;;;;;;5.50;1.70;;;;;;;;;;5133809;28;20408;-78
2024/02/08 01:35:39;;;;;;;5.73;1.50;;;;;;;;;;5114976;28;20460;-79
2024/02/08 01:38:05;;;;;;;3.33;1.37;;;;;;;;;;5133649;28;20417;-79
2024/02/08 01:40:31;;;;;;;10.90;1.40;;;;;;;;;;5135727;27;20877;-79
2024/02/08 01:42:57;;;;;;;5.23;2.20;;;;;;;;;;5119254;27;20468;-78
2024/02/08 01:45:30;;;;;;;9.93;1.47;;;;;;;;;;5137707;27;20410;-79
2024/02/08 01:48:01;;;;;;;7.93;2.00;;;;;;;;;;5137774;27;20405;-77
2024/02/08 01:50:29;;;;;;;10.63;3.33;;;;;;;;;;5137296;27;20624;-82
2024/02/08 01:52:59;;;;;;;10.70;1.40;;;;;;;;;;5137724;27;20405;-80
2024/02/08 01:55:25;;;;;;;7.93;2.10;;;;;;;;;;5137667;27;20857;-81
2024/02/08 01:57:50;;;;;;;8.70;1.73;;;;;;;;;;5137647;27;20502;-84
2024/02/08 02:00:17;;;;;;;8.13;2.33;;;;;;;;;;5137606;27;20445;-78
2024/02/08 02:02:43;;;;;;;9.27;2.97;;;;;;;;;;5119177;27;20579;-81
2024/02/08 02:05:17;;;;;;;12.67;2.50;;;;;;;;;;5137039;27;20497;-78
2024/02/08 02:07:43;;;;;;;4.37;1.67;;;;;;;;;;5137549;27;20770;-79
2024/02/08 02:10:09;;;;;;;8.67;1.30;;;;;;;;;;5137378;27;20456;-79
2024/02/08 02:12:35;;;;;;;8.57;1.00;;;;;;;;;;5137246;27;20428;-79
2024/02/08 02:15:04;;;;;;;8.03;1.90;;;;;;;;;;5137254;27;20404;-80
2024/02/08 02:17:31;;;;;;;4.17;1.07;;;;;;;;;;5137166;27;20408;-84
2024/02/08 02:20:05;;;;;;;8.00;2.40;;;;;;;;;;5136544;27;20413;-80
2024/02/08 02:22:33;;;;;;;5.33;1.57;;;;;;;;;;5137144;27;20408;-85
2024/02/08 02:25:00;;;;;;;8.37;2.60;;;;;;;;;;5137081;27;20412;-78
2024/02/08 02:27:27;;;;;;;6.23;2.00;;;;;;;;;;5137022;27;20413;-80
2024/02/08 02:29:54;;;;;;;6.73;1.77;;;;;;;;;;5136881;27;20809;-81
2024/02/08 02:32:21;;;;;;;6.13;2.10;;;;;;;;;;5137134;27;20417;-83
2024/02/08 02:34:50;;;;;;;6.90;2.87;;;;;;;;;;5136597;27;20398;-81
2024/02/08 02:37:16;;;;;;;6.37;1.20;;;;;;;;;;5136859;27;20444;-82
2024/02/08 02:39:42;;;;;;;5.10;2.03;;;;;;;;;;5136816;27;20411;-79
2024/02/08 02:42:08;;;;;;;10.80;3.20;;;;;;;;;;5125760;27;20502;-82
2024/02/08 02:44:34;;;;;;;9.77;2.00;;;;;;;;;;5116140;28;20410;-83
2024/02/08 02:47:03;;;;;;;6.83;2.73;;;;;;;;;;5116146;28;20425;-82
2024/02/08 02:49:29;;;;;;;4.83;2.57;;;;;;;;;;5116072;28;20468;-81
2024/02/08 02:51:59;;;;;;;7.90;2.53;;;;;;;;;;5114974;28;20940;-81
2024/02/08 02:54:30;;;;;;;6.20;3.00;;;;;;;;;;5115962;28;20503;-85
2024/02/08 02:56:56;;;;;;;16.63;4.43;;;;;;;;;;5115859;28;20402;-82
2024/02/08 02:59:26;;;;;;;6.27;2.50;;;;;;;;;;5115787;28;20409;-84
2024/02/08 03:01:55;;;;;;;5.17;2.90;;;;;;;;;;5115792;28;20404;-82
2024/02/08 03:04:21;;;;;;;4.97;2.20;;;;;;;;;;5115646;28;20762;-80
2024/02/08 03:06:48;;;;;;;6.67;2.83;;;;;;;;;;5097040;28;20414;-84
2024/02/08 03:09:17;;;;;;;4.83;2.27;;;;;;;;;;5115766;28;20407;-81
2024/02/08 03:11:46;;;;;;;9.37;2.27;;;;;;;;;;5115591;28;20465;-81
2024/02/08 03:14:15;;;;;;;7.50;1.90;;;;;;;;;;5115516;28;20859;-85
2024/02/08 03:16:41;;;;;;;6.63;2.23;;;;;;;;;;5115409;28;20461;-84
2024/02/08 03:19:07;;;;;;;7.17;2.03;;;;;;;;;;5097248;28;20432;-84
2024/02/08 03:21:36;;;;;;;8.07;2.83;;;;;;;;;;5115006;28;20416;-81
2024/02/08 03:24:08;;;;;;;8.40;2.80;;;;;;;;;;5115315;28;20492;-82
2024/02/08 03:26:40;;;;;;;5.20;2.57;;;;;;;;;;5115298;28;20415;-84
2024/02/08 03:29:06;;;;;;;4.90;2.00;;;;;;;;;;5115298;28;20434;-82
2024/02/08 03:31:32;;;;;;;3.60;1.40;;;;;;;;;;5115086;28;20534;-83
2024/02/08 03:33:59;;;;;;;11.23;2.23;;;;;;;;;;5115407;28;20407;-86
2024/02/08 03:36:27;;;;;;;4.30;2.27;;;;;;;;;;5115268;28;20935;-84
2024/02/08 03:38:53;;;;;;;4.33;1.17;;;;;;;;;;5116689;28;20411;-89
2024/02/08 03:41:19;;;;;;;6.57;1.50;;;;;;;;;;5111055;28;20477;-87
2024/02/08 03:43:47;;;;;;;7.57;2.70;;;;;;;;;;5094848;28;20837;-85
2024/02/08 03:46:14;;;;;;;3.27;1.43;;;;;;;;;;5095156;28;20415;-81
2024/02/08 03:48:45;;;;;;;11.43;2.90;;;;;;;;;;5094780;28;20435;-80
2024/02/08 03:51:11;;;;;;;2.60;1.30;;;;;;;;;;5094314;28;21034;-80
2024/02/08 03:53:37;;;;;;;6.00;1.93;;;;;;;;;;5094771;28;20503;-83
2024/02/08 03:56:06;;;;;;;6.97;2.07;;;;;;;;;;5076444;28;20426;-80
2024/02/08 03:58:31;;;;;;;3.60;1.93;;;;;;;;;;5094432;28;20407;-84
2024/02/08 04:01:00;;;;;;;16.17;2.47;;;;;;;;;;5094372;28;20833;-82
2024/02/08 04:03:53;;;;;;;7.80;1.33;;;;;;;;;;5093507;28;20413;-80
2024/02/08 04:06:49;;;;;;;8.03;2.40;;;;;;;;;;5093883;28;20941;-82
2024/02/08 04:09:33;;;;;;;13.60;2.37;;;;;;;;;;5075930;28;20430;-81
2024/02/08 04:53:37;;;;;;;5.37;2.30;;;;;;;;;;5114255;28;20759;-85
2024/02/08 04:56:08;;;;;;;8.23;2.63;;;;;;;;;;5113768;28;20412;-80
2024/02/08 04:58:34;;;;;;;20.43;4.70;;;;;;;;;;5095643;28;20467;-84
2024/02/08 05:01:03;;;;;;;15.80;3.10;;;;;;;;;;5094872;28;20936;-81
2024/02/08 05:03:30;;;;;;;12.40;3.03;;;;;;;;;;5113297;28;20516;-81
2024/02/08 05:05:56;;;;;;;8.33;2.40;;;;;;;;;;5113372;28;20776;-81
2024/02/08 05:08:24;;;;;;;5.27;1.80;;;;;;;;;;5113610;28;20499;-83
2024/02/08 05:10:50;;;;;;;7.10;2.97;;;;;;;;;;5113547;28;21108;-84
2024/02/08 05:13:17;;;;;;;7.80;2.60;;;;;;;;;;5113420;28;20498;-80
2024/02/08 05:15:43;;;;;;;9.37;2.27;;;;;;;;;;5118068;28;20937;-81
2024/02/08 05:18:11;;;;;;;6.23;1.80;;;;;;;;;;5120303;28;20406;-81
2024/02/08 05:20:38;;;;;;;3.83;1.43;;;;;;;;;;5119950;28;20414;-80
2024/02/08 05:23:04;;;;;;;4.70;1.37;;;;;;;;;;5101876;28;20934;-81
2024/02/08 05:25:29;;;;;;;9.50;2.20;;;;;;;;;;5120150;28;20467;-79
2024/02/08 05:27:55;;;;;;;8.83;1.90;;;;;;;;;;5120162;28;20398;-79
2024/02/08 05:30:22;;;;;;;8.00;3.10;;;;;;;;;;5101791;28;21025;-80
2024/02/08 05:32:48;;;;;;;5.40;1.93;;;;;;;;;;5119570;28;20871;-79
2024/02/08 05:35:19;;;;;;;6.57;1.80;;;;;;;;;;5119043;28;20481;-81
2024/02/08 05:37:46;;;;;;;5.40;1.60;;;;;;;;;;5118880;28;20528;-80
2024/02/08 05:40:14;;;;;;;11.53;2.97;;;;;;;;;;5119904;28;20902;-80
2024/02/08 05:42:42;;;;;;;14.57;3.17;;;;;;;;;;5131691;27;20452;-79
2024/02/08 05:45:23;;;;;;;9.93;3.33;;;;;;;;;;5127665;27;20473;-80
2024/02/08 05:47:49;;;;;;;9.63;3.27;;;;;;;;;;5120030;28;20442;-80
2024/02/08 05:50:21;;;;;;;8.63;3.20;;;;;;;;;;5119294;28;20492;-79
2024/02/08 05:52:51;;;;;;;10.73;3.17;;;;;;;;;;5101673;28;20427;-78
2024/02/08 05:55:19;;;;;;;8.13;2.37;;;;;;;;;;5104279;27;21006;-79
2024/02/08 05:57:45;;;;;;;9.80;4.60;;;;;;;;;;5129775;27;20425;-78
2024/02/08 06:00:14;;;;;;;9.03;3.70;;;;;;;;;;5137287;27;20415;-79
2024/02/08 06:02:41;;;;;;;6.60;2.50;;;;;;;;;;5122082;27;20910;-79
2024/02/08 06:05:16;;;;;;;6.90;2.70;;;;;;;;;;5140218;27;20413;-85
2024/02/08 06:07:56;;;;;;;6.20;3.40;;;;;;;;;;5140495;27;20429;-86
2024/02/08 06:10:23;;;;;;;9.20;2.23;;;;;;;;;;5140392;27;20448;-84
2024/02/08 06:12:59;;;;;;;10.43;3.13;;;;;;;;;;5140342;27;20409;-83
2024/02/08 06:15:25;;;;;;;9.07;2.87;;;;;;;;;;5140248;27;20403;-82
2024/02/08 06:17:57;;;;;;;6.63;2.97;;;;;;;;;;5121939;27;20424;-82
2024/02/08 06:20:33;;;;;;;7.37;2.40;;;;;;;;;;5140261;27;20813;-84
2024/02/08 06:23:03;;;;;;;7.40;3.20;;;;;;;;;;5122223;27;20497;-86
2024/02/08 06:25:31;;;;;;;6.40;2.23;;;;;;;;;;5122395;27;20825;-88
2024/02/08 06:27:58;;;;;;;8.13;2.60;;;;;;;;;;5138521;27;20903;-86
2024/02/08 06:30:25;;;;;;;6.80;3.17;;;;;;;;;;5138745;27;20443;-86
2024/02/08 06:33:10;;;;;;;4.40;3.47;;;;;;;;;;5139095;27;20409;-88
2024/02/08 06:35:38;;;;;;;10.00;3.10;;;;;;;;;;5139162;27;20416;-88
2024/02/08 06:38:08;;;;;;;5.83;2.53;;;;;;;;;;5141148;27;20415;-88
2024/02/08 06:40:50;;;;;;;8.80;3.20;;;;;;;;;;5140969;27;20413;-89
2024/02/08 07:38:14;;;;;;;11.03;3.87;;;;;;;;;;5052014;28;20466;-83
2024/02/08 07:40:43;;;;;;;12.50;3.50;;;;;;;;;;5102963;28;20478;-82
2024/02/08 07:45:48;;;;;;;11.07;4.93;;;;;;;;;;5094594;28;20429;-81
2024/02/08 07:48:27;;;;;;;11.40;4.90;;;;;;;;;;5094471;28;20427;-81
2024/02/08 07:50:53;;;;;;;6.83;3.00;;;;;;;;;;5093985;28;20522;-80
2024/02/08 07:53:19;;;;;;;8.37;3.20;;;;;;;;;;5094303;28;20507;-83
2024/02/08 07:55:58;;;;;;;5.67;3.10;;;;;;;;;;5094161;28;20417;-81
2024/02/08 07:58:27;;;;;;;7.63;4.20;;;;;;;;;;5094307;28;20464;-82
2024/02/08 08:00:56;;;;;;;12.83;4.50;;;;;;;;;;5075872;28;20914;-80
2024/02/08 08:03:23;;;;;;;13.30;4.70;;;;;;;;;;5094172;28;20808;-81
2024/02/08 08:05:56;;;;;;;11.97;5.67;;;;;;;;;;5093557;28;20512;-80
2024/02/08 08:08:25;;;;;;;8.17;4.07;;;;;;;;;;5088783;28;20422;-80
2024/02/08 08:11:02;;;;;;;4.83;3.80;;;;;;;;;;5094016;28;20836;-83
2024/02/08 08:18:57;;;;;;;11.50;4.00;;;;;;;;;;5093660;28;20533;-82
2024/02/08 08:21:27;;;;;;;5.53;3.20;;;;;;;;;;5093886;28;20414;-82
2024/02/08 08:24:02;;;;;;;7.10;4.50;;;;;;;;;;5093901;28;20408;-82
2024/02/08 08:26:39;;;;;;;10.80;3.57;;;;;;;;;;5093934;28;20433;-82
2024/02/08 08:29:13;;;;;;;18.53;4.50;;;;;;;;;;5092580;28;20413;-82
2024/02/08 08:31:51;;;;;;;11.73;3.60;;;;;;;;;;5092362;28;20481;-81
2024/02/08 08:36:58;;;;;;;7.20;3.20;;;;;;;;;;5092826;28;20966;-80
2024/02/08 08:42:16;;;;;;;10.77;3.70;;;;;;;;;;5117184;27;20507;-78
2024/02/08 08:44:48;;;;;;;8.30;2.53;;;;;;;;;;5134432;27;20409;-81
2024/02/08 08:47:13;;;;;;;5.97;3.57;;;;;;;;;;5134481;27;20472;-80
2024/02/08 08:49:39;;;;;;;13.60;3.93;;;;;;;;;;5133392;27;21477;-80
2024/02/08 08:52:06;;;;;;;10.30;3.37;;;;;;;;;;5116077;27;20468;-79
2024/02/08 08:54:36;;;;;;;9.90;3.57;;;;;;;;;;5134329;27;20490;-81
2024/02/08 08:57:12;;;;;;;6.80;3.27;;;;;;;;;;5134358;27;20418;-81
2024/02/08 08:59:42;;;;;;;7.73;3.27;;;;;;;;;;5134245;27;20396;-84
2024/02/08 09:02:08;;;;;;;5.30;2.80;;;;;;;;;;5134316;27;20438;-84
2024/02/08 09:04:35;;;;;;;10.90;2.80;;;;;;;;;;5133791;27;20412;-79
2024/02/08 09:07:11;;;;;;;12.47;4.63;;;;;;;;;;5134289;27;20431;-83
2024/02/08 09:12:30;;;;;;;13.17;4.50;;;;;;;;;;5134028;28;20502;-81
2024/02/08 09:14:59;;;;;;;12.27;3.50;;;;;;;;;;5134069;28;20424;-80
2024/02/08 09:17:25;;;;;;;15.93;3.70;;;;;;;;;;5133899;28;20446;-80
2024/02/08 09:19:51;;;;;;;9.87;4.57;;;;;;;;;;5133524;28;20393;-84
2024/02/08 09:22:17;;;;;;;10.33;6.13;;;;;;;;;;5133967;28;20410;-82
2024/02/08 09:24:44;;;;;;;19.00;7.33;;;;;;;;;;5134442;28;20815;-87
2024/02/08 09:27:18;;;;;;;11.60;4.87;;;;;;;;;;5135103;28;20429;-84
2024/02/08 09:29:50;;;;;;;20.13;6.50;;;;;;;;;;5135221;28;20527;-88
2024/02/08 09:35:11;;;;;;;11.33;3.40;;;;;;;;;;5134287;28;20418;-87
2024/02/08 09:37:37;;;;;;;12.83;4.03;;;;;;;;;;5134918;28;20416;-85
2024/02/08 09:40:18;;;;;;;8.33;4.17;;;;;;;;;;5134839;28;20430;-87
2024/02/08 09:42:54;;;;;;;9.83;4.60;;;;;;;;;;5134505;28;20459;-85
2024/02/08 09:48:11;;;;;;;7.07;4.40;;;;;;;;;;5134983;28;20451;-87
2024/02/08 09:50:37;;;;;;;10.73;3.47;;;;;;;;;;5116038;28;20478;-88
2024/02/08 09:53:19;;;;;;;13.63;5.20;;;;;;;;;;5134886;28;20527;-88
2024/02/08 09:55:55;;;;;;;13.00;4.83;;;;;;;;;;5134585;28;20397;-87
2024/02/08 09:58:39;;;;;;;9.70;4.73;;;;;;;;;;5116640;28;20410;-87
2024/02/08 10:01:21;;;;;;;10.70;4.57;;;;;;;;;;5134967;27;20882;-84
2024/02/08 10:03:50;;;;;;;9.93;4.10;;;;;;;;;;5138657;27;20400;-84
2024/02/08 10:06:38;;;;;;;9.23;4.20;;;;;;;;;;5138756;27;20409;-83
2024/02/08 10:09:33;;;;;;;11.60;4.43;;;;;;;;;;5138757;27;20403;-81
2024/02/08 10:11:57;;;;;;;11.80;4.07;;;;;;;;;;5137692;27;20464;-82
2024/02/08 10:14:32;;;;;;;9.77;5.30;;;;;;;;;;5138236;27;20400;-82
2024/02/08 10:17:00;;;;;;;12.80;4.87;;;;;;;;;;5138220;27;20765;-83
2024/02/08 10:22:01;;;;;;;7.00;3.73;;;;;;;;;;5137707;27;20504;-81
2024/02/08 10:27:20;;;;;;;6.47;2.90;;;;;;;;;;5095245;27;20405;-81
2024/02/08 10:29:52;;;;;;;10.70;4.07;;;;;;;;;;5137557;27;20409;-81
2024/02/08 10:32:19;;;;;;;8.27;3.53;;;;;;;;;;5137464;27;20522;-80
2024/02/08 10:34:45;;;;;;;9.50;5.13;;;;;;;;;;5137054;27;20401;-81
2024/02/08 10:37:46;;;;;;;7.43;3.27;;;;;;;;;;5118963;27;20418;-81
2024/02/08 10:40:23;;;;;;;13.70;3.37;;;;;;;;;;5137391;27;20437;-81
2024/02/08 10:42:50;;;;;;;7.97;3.73;;;;;;;;;;5137051;27;20455;-80
2024/02/08 10:45:17;;;;;;;11.10;4.80;;;;;;;;;;5137121;27;20414;-81
2024/02/08 10:47:47;;;;;;;11.70;3.63;;;;;;;;;;5137325;27;20410;-81
2024/02/08 10:50:20;;;;;;;8.93;2.80;;;;;;;;;;5136851;27;20410;-81
2024/02/08 10:52:49;;;;;;;12.33;5.60;;;;;;;;;;5137168;27;20421;-82
2024/02/08 10:55:18;;;;;;;12.83;3.73;;;;;;;;;;5137064;27;20399;-81
2024/02/08 10:58:19;;;;;;;8.80;3.20;;;;;;;;;;5137038;27;20413;-81
2024/02/08 11:03:14;;;;;;;8.30;3.40;;;;;;;;;;5136647;27;20460;-77
2024/02/08 11:05:48;;;;;;;7.47;2.90;;;;;;;;;;5136351;27;20420;-78
2024/02/08 11:08:24;;;;;;;6.50;3.37;;;;;;;;;;5136311;27;20498;-78
2024/02/08 11:10:52;;;;;;;8.33;3.33;;;;;;;;;;5135974;27;20542;-78
2024/02/08 11:13:29;;;;;;;7.13;3.20;;;;;;;;;;5135694;27;20420;-79
2024/02/08 11:16:04;;;;;;;8.43;3.20;;;;;;;;;;5136038;27;20401;-78
2024/02/08 11:18:33;;;;;;;13.00;3.43;;;;;;;;;;5135885;27;20420;-79
2024/02/08 11:21:12;;;;;;;6.93;3.17;;;;;;;;;;5117662;27;20906;-78
2024/02/08 11:23:45;;;;;;;11.13;3.37;;;;;;;;;;5136121;27;20510;-75
2024/02/08 11:26:11;;;;;;;7.83;3.03;;;;;;;;;;5135873;27;20416;-75
2024/02/08 11:28:44;;;;;;;8.30;3.13;;;;;;;;;;5135770;27;20419;-76
2024/02/08 11:31:13;;;;;;;8.83;2.80;;;;;;;;;;5135620;27;20456;-78
2024/02/08 11:33:42;;;;;;;5.80;3.03;;;;;;;;;;5135398;27;20430;-78
2024/02/08 11:36:12;;;;;;;6.90;3.10;;;;;;;;;;5135572;27;20431;-79
2024/02/08 11:38:40;;;;;;;8.70;3.63;;;;;;;;;;5135523;27;20819;-78
2024/02/08 11:41:11;;;;;;;9.90;3.70;;;;;;;;;;5135283;27;20771;-78
2024/02/08 11:43:47;;;;;;;13.50;4.43;;;;;;;;;;5135504;27;20904;-79
2024/02/08 11:46:20;;;;;;;10.60;4.43;;;;;;;;;;5135515;27;20740;-80
2024/02/08 11:48:46;;;;;;;12.23;4.80;;;;;;;;;;5135051;27;20415;-78
2024/02/08 11:51:13;;;;;;;9.60;3.60;;;;;;;;;;5116794;27;20469;-80
2024/02/08 11:53:39;;;;;;;8.63;4.67;;;;;;;;;;5135253;27;20889;-79
2024/02/08 11:56:09;;;;;;;8.53;3.80;;;;;;;;;;5135209;27;20455;-78
2024/02/08 11:58:40;;;;;;;10.47;4.50;;;;;;;;;;5135143;27;20414;-79
2024/02/08 12:01:06;;;;;;;7.37;4.10;;;;;;;;;;5135203;27;20447;-78
2024/02/08 12:03:32;;;;;;;8.30;3.30;;;;;;;;;;5134754;27;20479;-78
2024/02/08 12:05:58;;;;;;;8.90;3.70;;;;;;;;;;5135003;27;20402;-77
2024/02/08 12:08:25;;;;;;;9.27;4.40;;;;;;;;;;5134994;27;20403;-78
2024/02/08 12:10:54;;;;;;;8.53;3.83;;;;;;;;;;5134822;27;20964;-77
2024/02/08 12:13:26;;;;;;;10.23;4.50;;;;;;;;;;5134999;27;20401;-78
2024/02/08 12:15:55;;;;;;;6.57;3.13;;;;;;;;;;5134934;27;20412;-78
2024/02/08 12:18:37;;;;;;;7.90;3.60;;;;;;;;;;5134501;27;20402;-77
2024/02/08 12:21:04;;;;;;;12.50;4.73;;;;;;;;;;5134816;27;20473;-77
2024/02/08 12:23:35;;;;;;;14.07;4.13;;;;;;;;;;5134772;27;20737;-77
2024/02/08 12:26:03;;;;;;;8.67;3.67;;;;;;;;;;5134086;27;20735;-77
2024/02/08 12:28:32;;;;;;;16.40;5.00;;;;;;;;;;5134684;27;20394;-77
2024/02/08 12:30:59;;;;;;;9.07;4.33;;;;;;;;;;5134561;27;20560;-78
2024/02/08 12:33:28;;;;;;;10.10;4.03;;;;;;;;;;5134206;27;20406;-77
2024/02/08 12:35:54;;;;;;;10.70;3.50;;;;;;;;;;5116062;27;20571;-77
2024/02/08 12:38:21;;;;;;;9.77;4.77;;;;;;;;;;5134514;27;20771;-77
2024/02/08 12:40:48;;;;;;;11.30;3.07;;;;;;;;;;5115854;27;20751;-78
2024/02/08 12:43:14;;;;;;;8.13;3.20;;;;;;;;;;5116156;27;20423;-77
2024/02/08 12:45:41;;;;;;;12.00;4.50;;;;;;;;;;5134393;27;20489;-77
2024/02/08 12:48:08;;;;;;;11.60;4.10;;;;;;;;;;5133980;27;20411;-78
2024/02/08 12:50:40;;;;;;;10.30;3.10;;;;;;;;;;5134242;27;20457;-77
2024/02/08 12:53:06;;;;;;;10.10;4.13;;;;;;;;;;5134311;27;20505;-78
2024/02/08 12:55:32;;;;;;;9.87;3.70;;;;;;;;;;5134296;27;20480;-77
2024/02/08 12:58:01;;;;;;;7.33;3.30;;;;;;;;;;5134110;27;20411;-78
2024/02/08 13:00:33;;;;;;;12.40;4.40;;;;;;;;;;5134123;27;20404;-78
2024/02/08 13:03:05;;;;;;;15.90;7.00;;;;;;;;;;5133919;27;20843;-77
2024/02/08 13:05:37;;;;;;;15.83;7.87;;;;;;;;;;5134190;27;20402;-77
2024/02/08 13:08:06;;;;;;;21.27;12.33;;;;;;;;;;5134089;27;20407;-78
2024/02/08 13:10:32;;;;;;;18.93;8.83;;;;;;;;;;5134073;27;20458;-78
2024/02/08 13:13:03;;;;;;;11.63;7.20;;;;;;;;;;5134261;27;20404;-79
2024/02/08 13:15:33;;;;;;;13.13;7.07;;;;;;;;;;5134225;28;20482;-75
2024/02/08 13:17:59;;;;;;;10.27;4.67;;;;;;;;;;5133924;28;20826;-76
2024/02/08 13:20:25;;;;;;;14.00;6.07;;;;;;;;;;5134276;28;20834;-77
2024/02/08 13:22:52;;;;;;;10.40;5.87;;;;;;;;;;5134282;28;20761;-77
2024/02/08 13:25:18;;;;;;;16.50;7.63;;;;;;;;;;5134336;28;20477;-78
2024/02/08 13:27:44;;;;;;;14.17;7.90;;;;;;;;;;5134248;28;20405;-76
2024/02/08 13:30:17;;;;;;;15.63;5.70;;;;;;;;;;5133996;28;20472;-79
2024/02/08 13:32:44;;;;;;;16.93;6.90;;;;;;;;;;5133860;28;20414;-76
2024/02/08 13:35:18;;;;;;;12.50;3.60;;;;;;;;;;5133942;27;20817;-76
2024/02/08 13:37:44;;;;;;;12.10;4.77;;;;;;;;;;5138230;27;20936;-77
2024/02/08 13:40:10;;;;;;;11.83;5.10;;;;;;;;;;5138304;27;20412;-77
2024/02/08 13:42:38;;;;;;;11.70;4.70;;;;;;;;;;5138394;27;20463;-77
2024/02/08 13:45:04;;;;;;;11.83;4.50;;;;;;;;;;5138085;27;20485;-78
2024/02/08 13:47:31;;;;;;;8.20;3.50;;;;;;;;;;5138208;27;20398;-77
2024/02/08 13:49:59;;;;;;;14.10;3.63;;;;;;;;;;5119102;27;20528;-77
2024/02/08 13:52:25;;;;;;;16.80;4.33;;;;;;;;;;5137418;27;20464;-77
2024/02/08 13:54:55;;;;;;;7.30;3.90;;;;;;;;;;5137832;27;20415;-78
2024/02/08 13:57:24;;;;;;;9.20;3.80;;;;;;;;;;5137617;27;20416;-78
2024/02/08 13:59:55;;;;;;;12.23;4.00;;;;;;;;;;5137608;27;20404;-79
2024/02/08 14:02:23;;;;;;;9.63;5.00;;;;;;;;;;5137635;27;20409;-79
2024/02/08 14:04:55;;;;;;;14.37;4.60;;;;;;;;;;5137329;27;20408;-80
2024/02/08 14:07:25;;;;;;;9.60;4.83;;;;;;;;;;5136221;27;20422;-79
2024/02/08 14:10:08;;;;;;;6.23;3.67;;;;;;;;;;5137734;27;20406;-78
2024/02/08 14:12:45;;;;;;;10.20;3.80;;;;;;;;;;5137289;27;20477;-78
2024/02/08 14:15:12;;;;;;;9.27;3.30;;;;;;;;;;5137526;27;20404;-79
2024/02/08 14:17:41;;;;;;;11.73;3.70;;;;;;;;;;5137078;27;20444;-79
2024/02/08 14:20:52;;;;;;;7.67;3.10;;;;;;;;;;5137598;27;20405;-77
2024/02/08 14:23:03;;;;;;;14.63;4.60;;;;;;;;;;5122817;27;20916;-77
2024/02/08 14:25:48;;;;;;;9.70;4.67;;;;;;;;;;5137301;27;20401;-77
2024/02/08 14:28:14;;;;;;;9.97;4.03;;;;;;;;;;5136983;27;20405;-76
2024/02/08 14:30:43;;;;;;;11.00;4.17;;;;;;;;;;5137077;27;20451;-77
2024/02/08 14:33:11;;;;;;;12.50;5.07;;;;;;;;;;5136737;27;20408;-76
2024/02/08 14:35:38;;;;;;;7.50;2.70;;;;;;;;;;5137143;27;20408;-77
2024/02/08 14:38:07;;;;;;;6.87;3.30;;;;;;;;;;5137205;27;20438;-79
2024/02/08 14:40:33;;;;;;;11.73;3.87;;;;;;;;;;5137126;27;20425;-78
2024/02/08 14:42:59;;;;;;;8.37;3.10;;;;;;;;;;5136831;27;20456;-77
2024/02/08 14:45:26;;;;;;;11.37;4.00;;;;;;;;;;5137015;27;20444;-77
2024/02/08 14:47:52;;;;;;;8.90;3.00;;;;;;;;;;5135383;27;20508;-77
2024/02/08 14:53:05;;;;;;;7.07;4.03;;;;;;;;;;5136601;27;20432;-76
2024/02/08 14:55:35;;;;;;;11.60;3.30;;;;;;;;;;5136475;27;20417;-76
2024/02/08 14:58:04;;;;;;;8.40;3.03;;;;;;;;;;5136520;27;20474;-75
2024/02/08 15:03:07;;;;;;;11.37;3.50;;;;;;;;;;5135984;27;20518;-77
2024/02/08 15:05:40;;;;;;;8.87;2.40;;;;;;;;;;5118121;27;20442;-77
2024/02/08 15:10:48;;;;;;;11.30;3.00;;;;;;;;;;5136073;27;20472;-77
2024/02/08 15:13:19;;;;;;;11.10;3.47;;;;;;;;;;5100754;27;20417;-77
2024/02/08 15:15:50;;;;;;;13.43;5.00;;;;;;;;;;5116638;27;20412;-77
2024/02/08 15:18:30;;;;;;;11.00;3.10;;;;;;;;;;5135804;27;20170;-78
2024/02/08 15:20:56;;;;;;;7.97;2.97;;;;;;;;;;5136049;27;21020;-77
2024/02/08 15:23:31;;;;;;;13.13;3.70;;;;;;;;;;5135900;27;20759;-77
2024/02/08 15:26:02;;;;;;;6.17;3.10;;;;;;;;;;5135938;27;20812;-77
2024/02/08 15:28:33;;;;;;;10.77;2.40;;;;;;;;;;5117394;27;20408;-76
2024/02/08 15:31:12;;;;;;;9.40;3.40;;;;;;;;;;5117208;27;20537;-76
2024/02/08 15:33:55;;;;;;;9.83;4.30;;;;;;;;;;5135476;27;20414;-77
2024/02/08 15:36:31;;;;;;;8.93;3.40;;;;;;;;;;5135682;27;20409;-77
2024/02/08 15:39:24;;;;;;;11.10;4.40;;;;;;;;;;5135644;27;20417;-77
2024/02/08 15:41:51;;;;;;;14.80;4.60;;;;;;;;;;5135180;27;20468;-77
2024/02/08 15:44:19;;;;;;;8.70;3.20;;;;;;;;;;5117115;27;20413;-76
2024/02/08 15:46:45;;;;;;;9.77;3.93;;;;;;;;;;5135266;27;20523;-77
2024/02/08 15:49:15;;;;;;;7.30;4.07;;;;;;;;;;5135006;27;20939;-77
2024/02/08 15:51:40;;;;;;;13.27;5.27;;;;;;;;;;5135344;27;20471;-78
2024/02/08 15:54:07;;;;;;;22.23;7.60;;;;;;;;;;5135340;27;20404;-78
2024/02/08 15:56:36;;;;;;;16.37;6.27;;;;;;;;;;5135374;27;20497;-76
2024/02/08 15:59:03;;;;;;;18.43;7.47;;;;;;;;;;5135172;27;20438;-77
2024/02/08 16:04:41;;;;;;;37.03;15.37;;;;;;;;;;5134834;27;20408;-77
2024/02/08 16:07:14;;;;;;;21.10;7.67;;;;;;;;;;5135063;27;20402;-76
2024/02/08 16:09:49;;;;;;;9.00;5.30;;;;;;;;;;5116620;27;20875;-77
2024/02/08 16:12:36;;;;;;;13.00;4.00;;;;;;;;;;5116379;27;20483;-77
2024/02/08 16:15:07;;;;;;;9.03;4.73;;;;;;;;;;5123147;27;20405;-76
2024/02/08 16:17:36;;;;;;;6.77;2.60;;;;;;;;;;5095598;28;20432;-77
2024/02/08 16:22:52;;;;;;;5.37;3.10;;;;;;;;;;5114267;28;20496;-78
2024/02/08 16:25:23;;;;;;;9.90;2.87;;;;;;;;;;5114200;28;20485;-76
2024/02/08 16:27:53;;;;;;;8.80;2.17;;;;;;;;;;5114088;28;20408;-76
2024/02/08 16:30:28;;;;;;;11.40;2.60;;;;;;;;;;5114079;28;20404;-78
2024/02/08 16:33:08;;;;;;;12.20;4.40;;;;;;;;;;5113666;28;20409;-75
2024/02/08 16:35:41;;;;;;;7.57;4.47;;;;;;;;;;5114185;28;20400;-79
2024/02/08 16:38:16;;;;;;;10.00;3.20;;;;;;;;;;5113761;28;20518;-81
2024/02/08 16:40:52;;;;;;;5.47;2.43;;;;;;;;;;5106472;28;20405;-80
2024/02/08 16:43:27;;;;;;;14.40;4.40;;;;;;;;;;5105048;27;20770;-82
2024/02/08 16:45:58;;;;;;;12.90;4.93;;;;;;;;;;5134426;27;20760;-80
2024/02/08 16:48:24;;;;;;;8.17;3.80;;;;;;;;;;5115382;27;20408;-78
2024/02/08 16:50:56;;;;;;;12.53;3.43;;;;;;;;;;5112221;27;20794;-80
2024/02/08 16:53:26;;;;;;;7.73;3.17;;;;;;;;;;5109955;28;20971;-78
2024/02/08 16:55:58;;;;;;;16.67;5.00;;;;;;;;;;5112588;27;20896;-81
2024/02/08 16:58:37;;;;;;;11.80;2.63;;;;;;;;;;5113817;28;20848;-79
2024/02/08 17:01:18;;;;;;;12.73;3.33;;;;;;;;;;5113887;28;20419;-77
2024/02/08 17:03:51;;;;;;;7.60;2.00;;;;;;;;;;5105710;28;20409;-79
2024/02/08 17:06:18;;;;;;;2.90;1.50;;;;;;;;;;5114221;28;20830;-78
2024/02/08 17:09:00;;;;;;;7.83;1.87;;;;;;;;;;5113718;28;20416;-78
2024/02/08 17:11:31;;;;;;;8.00;2.53;;;;;;;;;;5113282;28;20829;-78
2024/02/08 17:13:58;;;;;;;5.37;0.73;;;;;;;;;;5095615;28;20416;-79